^^
Station Historical Data
 
Daily Summary for October 30, 2014 Units:  English    Metric   Both
« Previous Day
Next Day »
Daily Weekly Monthly Yearly Custom
  Current: High: Low: Average:
Temperature: 78.9 °F 79.2 °F 63.4 °F 67.2 °F
Dew Point: 67.0 °F 67.7 °F 62.3 °F 64.2 °F
Humidity: 67% 97% 65% 91%
Wind Speed: 1.0mph 2.0mph 0.0mph 0.1mph
Wind Gust: 3.0mph 6.0mph - -
WindWest - - West
Pressure: 29.95 in 29.99 in 29.93 in -
Precipitation: 0.00 in      
Historical Graphs
 
 
Tabular Data for October 30, 2014
Time Temperature Dew Point Pressure Wind Wind Speed Wind Gust Humidity Rainfall Rate (Hourly) solar Conditions
00:00 67.1 °F 64.4 °F 29.99 in Calm     91% 0.00 in 0.0 W/m2 RA
00:10 66.7 °F 63.6 °F 29.99 in Calm     90% 0.00 in 0.0 W/m2 CLR
00:15 66.7 °F 64.3 °F 29.99 in Calm     92% 0.00 in 0.0 W/m2 CLR
00:20 66.5 °F 63.8 °F 29.99 in Calm     91% 0.00 in 0.0 W/m2 CLR
00:30 66.7 °F 64.6 °F 29.98 in Calm     93% 0.00 in 0.0 W/m2 CLR
00:40 66.6 °F 64.5 °F 29.98 in Calm     93% 0.00 in 0.0 W/m2 CLR
00:45 66.4 °F 64.3 °F 29.98 in Calm     93% 0.00 in 0.0 W/m2 CLR
00:50 66.4 °F 64.3 °F 29.98 in Calm     93% 0.00 in 0.0 W/m2 CLR
00:55 66.3 °F 64.2 °F 29.98 in Calm     93% 0.00 in 0.0 W/m2 CLR
01:00 66.2 °F 64.1 °F 29.98 in Calm     93% 0.00 in 0.0 W/m2 CLR
01:10 66.0 °F 63.9 °F 29.97 in Calm     93% 0.00 in 0.0 W/m2 CLR
01:15 65.9 °F 63.8 °F 29.97 in Calm     93% 0.00 in 0.0 W/m2 CLR
01:20 65.7 °F 63.3 °F 29.97 in Calm     92% 0.00 in 0.0 W/m2 CLR
01:30 65.5 °F 63.4 °F 29.97 in Calm     93% 0.00 in 0.0 W/m2 CLR
01:40 65.3 °F 63.2 °F 29.97 in Calm     93% 0.00 in 0.0 W/m2 CLR
01:45 65.2 °F 63.4 °F 29.97 in Calm     94% 0.00 in 0.0 W/m2 CLR
01:50 65.2 °F 63.4 °F 29.96 in Calm     94% 0.00 in 0.0 W/m2 CLR
01:55 65.1 °F 63.3 °F 29.96 in Calm     94% 0.00 in 0.0 W/m2 CLR
02:00 65.0 °F 63.2 °F 29.96 in Calm     94% 0.00 in 0.0 W/m2 CLR
02:10 64.9 °F 63.4 °F 29.96 in Calm     95% 0.00 in 0.0 W/m2 CLR
02:15 65.0 °F 63.5 °F 29.96 in Calm     95% 0.00 in 0.0 W/m2 CLR
02:20 65.1 °F 63.6 °F 29.96 in Calm     95% 0.00 in 0.0 W/m2 CLR
02:30 65.2 °F 63.7 °F 29.95 in Calm     95% 0.00 in 0.0 W/m2 CLR
02:40 65.1 °F 63.6 °F 29.95 in Calm     95% 0.00 in 0.0 W/m2 CLR
02:45 65.0 °F 63.5 °F 29.94 in Calm     95% 0.00 in 0.0 W/m2 CLR
02:50 64.9 °F 63.8 °F 29.94 in Calm     96% 0.00 in 0.0 W/m2 CLR
03:00 64.9 °F 63.7 °F 29.94 in Calm     96% 0.00 in 0.0 W/m2 CLR
03:10 64.8 °F 63.6 °F 29.94 in Calm     96% 0.00 in 0.0 W/m2 CLR
03:15 64.7 °F 63.5 °F 29.94 in Calm     96% 0.00 in 0.0 W/m2 CLR
03:20 64.6 °F 63.4 °F 29.94 in Calm     96% 0.00 in 0.0 W/m2 CLR
03:25 64.7 °F 63.5 °F 29.94 in Calm     96% 0.00 in 0.0 W/m2 CLR
03:30 64.7 °F 63.5 °F 29.94 in Calm     96% 0.00 in 0.0 W/m2 CLR
03:40 64.4 °F 63.2 °F 29.94 in Calm     96% 0.00 in 0.0 W/m2 CLR
03:45 64.3 °F 63.2 °F 29.94 in Calm     96% 0.00 in 0.0 W/m2 CLR
03:50 64.4 °F 63.2 °F 29.94 in Calm     96% 0.00 in 0.0 W/m2 CLR
03:55 64.4 °F 63.2 °F 29.94 in Calm     96% 0.00 in 0.0 W/m2 CLR
04:00 64.3 °F 63.1 °F 29.94 in Calm     96% 0.00 in 0.0 W/m2 CLR
04:10 64.2 °F 63.0 °F 29.93 in Calm     96% 0.00 in 0.0 W/m2 CLR
04:15 64.1 °F 63.0 °F 29.93 in Calm     96% 0.00 in 0.0 W/m2 CLR
04:20 64.0 °F 62.8 °F 29.94 in Calm     96% 0.00 in 0.0 W/m2 CLR
04:30 63.7 °F 62.5 °F 29.93 in Calm     96% 0.00 in 0.0 W/m2 CLR
04:40 63.7 °F 62.5 °F 29.93 in Calm     96% 0.00 in 0.0 W/m2 CLR
04:45 63.7 °F 62.5 °F 29.93 in Calm     96% 0.00 in 0.0 W/m2 CLR
04:50 63.6 °F 62.4 °F 29.93 in Calm     96% 0.00 in 0.0 W/m2 CLR
04:55 63.7 °F 62.9 °F 29.93 in Calm     97% 0.00 in 0.0 W/m2 CLR
05:00 63.9 °F 63.0 °F 29.93 in Calm     97% 0.00 in 0.0 W/m2 CLR
05:10 63.7 °F 62.5 °F 29.93 in Calm     96% 0.00 in 0.0 W/m2 CLR
05:15 63.7 °F 62.9 °F 29.93 in Calm     97% 0.00 in 0.0 W/m2 CLR
05:20 63.7 °F 62.8 °F 29.93 in Calm     97% 0.00 in 0.0 W/m2 CLR
05:30 64.0 °F 63.1 °F 29.93 in Calm     97% 0.00 in 0.0 W/m2 CLR
05:40 64.0 °F 63.1 °F 29.93 in Calm     97% 0.00 in 0.0 W/m2 CLR
05:45 63.7 °F 62.9 °F 29.93 in Calm     97% 0.00 in 0.0 W/m2 CLR
05:50 63.7 °F 62.8 °F 29.93 in Calm     97% 0.00 in 0.0 W/m2 CLR
06:00 63.9 °F 63.0 °F 29.93 in Calm     97% 0.00 in 0.0 W/m2 CLR
06:10 63.8 °F 62.9 °F 29.93 in Calm     97% 0.00 in 0.0 W/m2 CLR
06:15 63.7 °F 62.8 °F 29.93 in Calm     97% 0.00 in 0.0 W/m2 CLR
06:20 63.8 °F 62.9 °F 29.93 in Calm     97% 0.00 in 0.0 W/m2 CLR
06:30 64.1 °F 63.2 °F 29.94 in Calm   1.0 mph 97% 0.00 in 0.0 W/m2 CLR
06:40 64.0 °F 63.1 °F 29.94 in Calm   1.0 mph 97% 0.00 in 0.0 W/m2 CLR
06:45 63.9 °F 63.0 °F 29.94 in Calm   1.0 mph 97% 0.00 in 0.0 W/m2 CLR
06:55 63.9 °F 63.0 °F 29.95 in Calm     97% 0.00 in 0.0 W/m2 CLR
07:00 63.9 °F 63.0 °F 29.95 in Calm     97% 0.00 in 0.0 W/m2 CLR
07:10 63.8 °F 62.9 °F 29.95 in Calm     97% 0.00 in 0.0 W/m2 CLR
07:15 63.7 °F 62.9 °F 29.95 in Calm     97% 0.00 in 0.0 W/m2 CLR
07:20 63.7 °F 62.9 °F 29.95 in Calm   1.0 mph 97% 0.00 in 0.0 W/m2 CLR
07:25 63.7 °F 62.8 °F 29.95 in Calm     97% 0.00 in 0.0 W/m2 CLR
07:30 63.7 °F 62.9 °F 29.95 in Calm   1.0 mph 97% 0.00 in 0.0 W/m2 CLR
07:40 63.5 °F 62.3 °F 29.95 in Calm     96% 0.00 in 0.0 W/m2 CLR
07:45 63.5 °F 62.6 °F 29.95 in Calm     97% 0.00 in 0.0 W/m2 CLR
07:50 63.4 °F 62.5 °F 29.95 in Calm     97% 0.00 in 0.0 W/m2 CLR
07:55 63.5 °F 62.6 °F 29.95 in Calm     97% 0.00 in 0.0 W/m2 CLR
08:00 63.4 °F 62.5 °F 29.95 in Calm     97% 0.00 in 0.0 W/m2 CLR
08:10 63.5 °F 62.6 °F 29.95 in Calm     97% 0.00 in 0.0 W/m2 CLR
08:15 63.7 °F 62.9 °F 29.96 in Calm     97% 0.00 in 0.0 W/m2 CLR
08:20 64.1 °F 63.2 °F 29.96 in Calm   1.0 mph 97% 0.00 in 0.0 W/m2 CLR
08:25 64.4 °F 63.5 °F 29.96 in Calm   1.0 mph 97% 0.00 in 0.0 W/m2 CLR
08:30 64.6 °F 63.7 °F 29.96 in Calm     97% 0.00 in 0.0 W/m2 CLR
08:40 65.1 °F 64.2 °F 29.97 in Calm   1.0 mph 97% 0.00 in 0.0 W/m2 CLR
08:45 65.6 °F 64.7 °F 29.97 in Calm     97% 0.00 in 0.0 W/m2 CLR
08:50 66.2 °F 65.4 °F 29.97 in Calm     97% 0.00 in 0.0 W/m2 CLR
09:00 67.6 °F 66.1 °F 29.96 in Calm   2.0 mph 95% 0.00 in 0.0 W/m2 CLR
09:10 69.6 °F 66.9 °F 29.95 in Calm   1.0 mph 91% 0.00 in 0.0 W/m2 CLR
09:15 70.3 °F 66.2 °F 29.95 in Calm   1.0 mph 87% 0.00 in 0.0 W/m2 CLR
09:20 70.9 °F 66.9 °F 29.96 in Calm     87% 0.00 in 0.0 W/m2 CLR
09:25 71.9 °F 66.8 °F 29.96 in Calm   1.0 mph 84% 0.00 in 0.0 W/m2 CLR
09:30 72.4 °F 66.9 °F 29.96 in Calm   1.0 mph 83% 0.00 in 0.0 W/m2 CLR
09:40 73.5 °F 67.7 °F 29.96 in Calm     82% 0.00 in 0.0 W/m2 CLR
09:45 74.1 °F 67.2 °F 29.96 in Calm   1.0 mph 79% 0.00 in 0.0 W/m2 CLR
09:55 75.0 °F 67.7 °F 29.97 in South 1.0 mph 2.0 mph 78% 0.00 in 0.0 W/m2 CLR
10:00 74.8 °F 67.1 °F 29.96 in WSW 2.0 mph 2.0 mph 77% 0.00 in 0.0 W/m2 CLR
10:10 75.1 °F 67.0 °F 29.96 in Calm   2.0 mph 76% 0.00 in 0.0 W/m2 CLR
10:15 75.3 °F 66.4 °F 29.96 in Calm   3.0 mph 74% 0.00 in 0.0 W/m2 CLR
10:20 76.0 °F 67.1 °F 29.95 in Calm   1.0 mph 74% 0.00 in 0.0 W/m2 CLR
10:30 76.6 °F 66.9 °F 29.96 in NNW 2.0 mph 3.0 mph 72% 0.00 in 0.0 W/m2 CLR
10:40 76.5 °F 66.8 °F 29.96 in West 1.0 mph 3.0 mph 72% 0.00 in 0.0 W/m2 CLR
10:45 76.8 °F 66.3 °F 29.96 in WNW 1.0 mph 3.0 mph 70% 0.00 in 0.0 W/m2 CLR
10:55 77.4 °F 67.2 °F 29.95 in Calm   2.0 mph 71% 0.00 in 0.0 W/m2 CLR
11:00 78.0 °F 67.0 °F 29.95 in North 1.0 mph 3.0 mph 69% 0.00 in 0.0 W/m2 CLR
11:10 78.7 °F 67.2 °F 29.95 in Calm   2.0 mph 68% 0.00 in 0.0 W/m2 CLR
11:15 79.2 °F 66.8 °F 29.96 in Calm   2.0 mph 66% 0.00 in 0.0 W/m2 CLR
11:20 78.9 °F 66.1 °F 29.96 in WSW 2.0 mph 4.0 mph 65% 0.00 in 0.0 W/m2 CLR
11:30 79.0 °F 67.1 °F 29.96 in West 2.0 mph 6.0 mph 67% 0.00 in 0.0 W/m2 CLR
11:40 78.7 °F 67.6 °F 29.95 in WSW 1.0 mph 3.0 mph 69% 0.00 in 0.0 W/m2 CLR
11:45 79.2 °F 67.3 °F 29.95 in WSW 1.0 mph 4.0 mph 67% 0.00 in 0.0 W/m2 CLR
11:50 78.9 °F 67.0 °F 29.95 in West 1.0 mph 3.0 mph 67% 0.00 in 0.0 W/m2 CLR
Lake Mary, FL, USA
Compliments of Weather Underground